createdAt,value
2023-01-15T10:58:11.180Z,76.11
2023-01-15T11:00:43.984Z,76.28
2023-01-15T11:03:22.441Z,77.01
2023-01-15T11:06:07.221Z,76.34
2023-01-15T11:09:10.384Z,77.00
2023-01-15T11:19:50.872Z,78.75
2023-01-15T11:22:46.084Z,80.03
2023-01-15T11:25:57.573Z,80.39
2023-01-15T11:31:44.722Z,81.40
2023-01-15T11:34:22.159Z,81.80
2023-01-15T11:36:52.441Z,81.03
2023-01-15T11:39:31.464Z,81.07
2023-01-15T11:42:21.865Z,81.10
2023-01-15T11:45:15.492Z,82.00
2023-01-15T11:48:16.543Z,81.81
2023-01-15T11:50:57.339Z,81.08
2023-01-15T11:53:29.691Z,81.31
2023-01-15T11:56:13.531Z,84.13
2023-01-15T11:58:52.662Z,86.93
2023-01-15T12:01:30.233Z,88.81
2023-01-15T12:04:08.886Z,89.12
2023-01-15T12:07:47.946Z,88.27
2023-01-15T12:15:03.731Z,87.86
2023-01-15T12:18:21.488Z,89.14
2023-01-15T12:21:08.553Z,91.06
2023-01-15T12:24:08.244Z,91.01
2023-01-15T12:27:01.011Z,92.28
2023-01-15T12:33:56.553Z,94.77
2023-01-15T12:41:05.162Z,96.12
2023-01-15T12:44:13.773Z,95.43
2023-01-15T12:47:33.484Z,95.66
2023-01-15T12:50:36.389Z,94.21
2023-01-15T12:53:16.905Z,94.59
2023-01-15T12:55:56.806Z,95.01
2023-01-15T12:58:43.272Z,94.64
2023-01-15T13:01:19.264Z,95.30
2023-01-15T13:04:07.364Z,95.87
2023-01-15T13:07:09.606Z,95.46
2023-01-15T13:11:44.192Z,95.07
2023-01-15T13:13:37.078Z,94.53
2023-01-15T13:16:27.413Z,94.44
2023-01-15T13:19:31.386Z,94.25
2023-01-15T13:22:08.651Z,95.18
2023-01-15T13:25:16.919Z,94.52
2023-01-15T13:28:04.668Z,94.09
2023-01-15T13:34:27.468Z,94.28
2023-01-15T13:41:01.867Z,93.64
2023-01-15T13:44:04.328Z,93.74
2023-01-15T13:46:42.156Z,92.77
2023-01-15T13:50:02.057Z,92.83
2023-01-15T13:55:46.032Z,92.71
2023-01-15T13:58:31.394Z,92.77
2023-01-15T14:01:37.528Z,93.17
2023-01-15T14:04:34.358Z,93.16
2023-01-15T14:07:56.354Z,92.22
2023-01-15T14:11:00.272Z,92.26
2023-01-15T14:13:52.419Z,91.69
2023-01-15T14:16:58.658Z,91.91
2023-01-15T14:20:07.939Z,92.24
2023-01-15T14:23:45.734Z,92.13
2023-01-15T14:27:16.371Z,91.55
2023-01-15T14:37:54.730Z,89.87
2023-01-15T14:41:51.063Z,89.27
2023-01-15T14:45:06.492Z,89.11
2023-01-15T14:54:59.446Z,90.39
2023-01-15T15:05:19.653Z,93.40
2023-01-15T15:15:57.405Z,92.07
2023-01-15T15:18:36.754Z,92.55
2023-01-15T15:21:11.680Z,92.95
2023-01-15T15:23:45.012Z,95.28
2023-01-15T15:26:47.634Z,96.40
2023-01-15T15:29:44.344Z,97.22
2023-01-15T15:32:24.509Z,97.29
2023-01-15T15:35:07.995Z,96.91
2023-01-15T15:37:50.288Z,98.19
2023-01-15T15:40:21.133Z,98.61
2023-01-15T15:43:17.356Z,98.69
2023-01-15T15:46:10.800Z,99.40
2023-01-15T15:48:47.897Z,98.68
2023-01-15T15:51:29.429Z,98.45
2023-01-15T15:54:21.942Z,99.76
2023-01-15T15:56:54.452Z,99.61
2023-01-15T15:59:30.662Z,99.61
2023-01-15T16:02:02.275Z,99.06
2023-01-15T16:04:30.603Z,98.65
2023-01-15T16:06:58.776Z,99.60
2023-01-15T16:09:28.604Z,99.33
2023-01-15T16:12:07.444Z,99.70
2023-01-15T16:14:37.771Z,98.93
2023-01-15T16:17:06.257Z,99.74
2023-01-15T16:19:37.268Z,99.49
2023-01-15T16:22:08.452Z,99.64
2023-01-15T16:24:41.227Z,99.68
2023-01-15T16:27:17.149Z,100.00
2023-01-15T16:29:51.282Z,99.91
2023-01-15T16:32:49.823Z,100.00
2023-01-15T16:38:24.654Z,99.87
2023-01-15T16:40:59.761Z,99.93
2023-01-15T16:43:32.083Z,99.15
2023-01-15T16:46:10.135Z,98.75
2023-01-15T16:48:47.203Z,98.33
2023-01-15T16:51:44.788Z,99.28
2023-01-15T16:54:49.626Z,98.84
2023-01-15T16:57:38.242Z,98.99
2023-01-15T17:00:31.410Z,98.71
2023-01-15T17:03:06.786Z,97.91
2023-01-15T17:05:46.465Z,99.11
2023-01-15T17:08:28.246Z,99.15
2023-01-15T17:11:02.841Z,98.72
2023-01-15T17:13:49.137Z,98.54
2023-01-15T17:16:38.727Z,99.35
2023-01-15T17:19:09.439Z,99.29
2023-01-15T17:21:40.455Z,99.04
2023-01-15T17:24:15.201Z,98.75
2023-01-15T17:26:48.612Z,98.82
2023-01-15T17:29:21.645Z,98.65
2023-01-15T17:31:50.201Z,98.46
2023-01-15T17:34:28.207Z,99.33
2023-01-15T17:36:58.655Z,98.14
2023-01-15T17:39:29.968Z,98.03
2023-01-15T17:42:17.818Z,97.87
2023-01-15T17:44:49.869Z,97.95
2023-01-15T17:47:18.247Z,97.27
2023-01-15T17:50:00.662Z,97.83
2023-01-15T17:52:34.519Z,97.41
2023-01-15T17:55:22.047Z,96.63
2023-01-15T17:58:14.364Z,95.95
2023-01-15T18:01:04.430Z,95.84
2023-01-15T18:04:01.044Z,95.51
2023-01-15T18:06:30.258Z,95.79
2023-01-15T18:09:09.561Z,95.37
2023-01-15T18:11:38.580Z,95.37
2023-01-15T18:14:10.433Z,94.37
2023-01-15T18:16:41.293Z,94.81
2023-01-15T18:19:09.785Z,94.49
2023-01-15T18:22:11.001Z,94.38
2023-01-15T18:24:42.061Z,94.68
2023-01-15T18:27:10.548Z,94.09
2023-01-15T18:29:54.279Z,94.22
2023-01-15T18:32:25.067Z,93.67
2023-01-15T18:34:53.337Z,94.04
2023-01-15T18:37:22.074Z,93.89
2023-01-15T18:39:50.292Z,93.53
2023-01-15T18:42:35.481Z,94.02
2023-01-15T18:45:20.782Z,94.14
2023-01-15T18:47:50.523Z,93.85
2023-01-15T18:50:18.817Z,93.48
2023-01-15T18:52:52.989Z,93.70
2023-01-15T18:55:28.788Z,94.06
2023-01-15T19:18:30.255Z,93.96
2023-01-15T19:20:58.608Z,94.24
2023-01-15T19:23:27.099Z,94.34
2023-01-15T19:25:55.341Z,94.56
2023-01-15T19:28:29.666Z,95.02
2023-01-15T19:31:15.498Z,94.59
2023-01-15T19:33:45.479Z,94.69
2023-01-15T19:36:16.649Z,94.28
2023-01-15T19:38:44.815Z,94.39
2023-01-15T19:41:30.891Z,94.29
2023-01-15T19:44:19.134Z,94.22
2023-01-15T19:47:07.483Z,94.44
2023-01-15T19:49:55.928Z,94.28
2023-01-15T19:52:41.451Z,94.65
2023-01-15T19:55:12.053Z,95.00
2023-01-15T19:57:40.602Z,95.20
2023-01-15T20:00:17.378Z,95.32
2023-01-15T20:02:46.515Z,95.51
2023-01-15T20:05:17.729Z,95.23
2023-01-15T20:07:46.007Z,95.10
2023-01-15T20:10:20.469Z,95.62
2023-01-15T20:13:11.570Z,95.69
2023-01-15T20:15:42.854Z,95.17
2023-01-15T20:18:11.639Z,95.00
2023-01-15T20:20:44.819Z,95.79
2023-01-15T20:23:13.681Z,95.77
2023-01-15T20:25:42.383Z,95.88
2023-01-15T20:28:10.733Z,94.94
2023-01-15T20:30:38.979Z,95.60
2023-01-15T20:33:07.796Z,95.81
2023-01-15T20:35:38.931Z,95.94
2023-01-15T20:38:10.354Z,96.74
2023-01-15T20:40:43.924Z,96.95
2023-01-15T20:43:31.729Z,97.34
2023-01-15T20:46:09.452Z,97.68
2023-01-15T20:48:54.957Z,97.22
2023-01-15T20:51:23.947Z,97.60
2023-01-15T20:53:56.832Z,97.50
2023-01-15T20:56:25.461Z,98.15
2023-01-15T20:59:01.715Z,97.72
2023-01-15T21:01:30.160Z,97.90
2023-01-15T21:03:58.909Z,98.15
2023-01-15T21:06:30.273Z,98.50
2023-01-15T21:09:00.146Z,98.20
2023-01-15T21:11:28.689Z,98.83
2023-01-15T21:13:57.095Z,98.77
2023-01-15T21:16:25.796Z,98.72
2023-01-15T21:18:54.483Z,99.14
2023-01-15T21:21:22.880Z,99.25
2023-01-15T21:23:57.315Z,99.29
2023-01-15T21:26:29.053Z,98.85
2023-01-15T21:28:57.570Z,99.41
2023-01-15T21:31:27.059Z,100.00
2023-01-15T21:33:57.195Z,100.00
2023-01-15T21:36:26.068Z,99.93
2023-01-15T21:39:02.373Z,100.00
2023-01-15T21:41:49.472Z,100.00
2023-01-15T21:44:37.095Z,100.00
2023-01-15T21:47:09.154Z,100.00
2023-01-15T21:49:41.771Z,100.00
2023-01-15T21:52:12.836Z,100.00
2023-01-15T21:54:41.852Z,100.00
2023-01-15T21:57:16.561Z,100.00
2023-01-15T21:59:44.918Z,100.00
2023-01-15T22:02:17.476Z,100.00
2023-01-15T22:04:47.361Z,100.00
2023-01-15T22:07:17.512Z,100.00
2023-01-15T22:09:45.995Z,100.00
2023-01-15T22:12:22.722Z,100.00
2023-01-15T22:14:51.440Z,100.00
2023-01-15T22:17:30.196Z,100.00
2023-01-15T22:19:58.613Z,100.00
2023-01-15T22:22:33.362Z,100.00
2023-01-15T22:25:05.131Z,100.00
2023-01-15T22:27:41.105Z,100.00
2023-01-15T22:30:13.170Z,100.00
2023-01-15T22:32:41.594Z,100.00
2023-01-15T22:35:10.812Z,100.00
2023-01-15T22:37:39.649Z,100.00
2023-01-15T22:40:15.379Z,100.00
2023-01-15T22:42:45.503Z,100.00
2023-01-15T22:45:16.517Z,100.00
2023-01-15T22:47:45.136Z,100.00
2023-01-15T22:50:13.725Z,100.00
2023-01-15T22:52:47.087Z,100.00
2023-01-15T22:55:17.924Z,100.00
2023-01-15T22:57:50.272Z,100.00
2023-01-15T23:00:19.641Z,100.00
2023-01-15T23:03:05.061Z,100.00
2023-01-15T23:05:41.271Z,100.00
2023-01-15T23:08:09.439Z,100.00
2023-01-15T23:10:37.899Z,100.00
2023-01-15T23:13:07.499Z,100.00
2023-01-15T23:15:35.768Z,100.00
2023-01-15T23:18:03.940Z,100.00
2023-01-15T23:20:32.321Z,100.00
2023-01-15T23:23:03.151Z,100.00
2023-01-15T23:25:31.357Z,99.71
2023-01-15T23:27:59.598Z,100.00
2023-01-15T23:30:32.369Z,100.00
2023-01-15T23:33:00.711Z,100.00
2023-01-15T23:35:28.919Z,100.00
2023-01-15T23:37:57.213Z,99.88
2023-01-15T23:40:25.325Z,100.00
2023-01-15T23:43:10.770Z,99.49
2023-01-15T23:45:57.662Z,100.00
2023-01-15T23:48:25.896Z,100.00
2023-01-15T23:50:54.106Z,99.57
2023-01-15T23:53:22.289Z,100.00
2023-01-15T23:55:50.487Z,99.43
2023-01-15T23:58:18.627Z,99.95
